createdAt,value
2022-09-17T00:19:52.740Z,205
2022-09-17T00:39:52.730Z,210
2022-09-17T00:59:52.697Z,198
2022-09-17T01:19:52.674Z,195
2022-09-17T01:39:52.694Z,210
2022-09-17T01:59:52.625Z,206
2022-09-17T02:19:52.605Z,209
2022-09-17T02:39:52.601Z,204
2022-09-17T02:59:52.587Z,192
2022-09-17T03:19:52.034Z,207
2022-09-17T03:39:52.057Z,213
2022-09-17T03:59:52.496Z,212
2022-09-17T04:19:52.455Z,204
2022-09-17T04:39:52.470Z,205
2022-09-17T04:59:51.917Z,204
2022-09-17T05:19:52.383Z,195
2022-09-17T05:39:51.907Z,193
2022-09-17T05:59:52.332Z,195
2022-09-17T06:19:52.311Z,206
2022-09-17T06:39:52.332Z,204
2022-09-17T06:59:52.277Z,207
2022-09-17T07:19:52.231Z,209
2022-09-17T07:39:51.757Z,207
2022-09-17T07:59:52.188Z,189
2022-09-17T08:19:52.154Z,224
2022-09-17T08:39:52.240Z,211
2022-09-17T08:59:52.085Z,212
2022-09-17T09:19:52.047Z,197
2022-09-17T09:39:52.072Z,211
2022-09-17T09:59:51.994Z,213
2022-09-17T10:19:51.954Z,203
2022-09-17T10:39:51.959Z,214
2022-09-17T10:59:51.922Z,188
2022-09-17T11:19:51.886Z,191
2022-09-17T11:39:51.854Z,206
2022-09-17T11:59:51.320Z,181
2022-09-17T12:19:51.778Z,169
2022-09-17T12:39:51.775Z,193
2022-09-17T12:59:51.708Z,199
2022-09-17T13:19:51.705Z,224
2022-09-17T13:39:51.771Z,237
2022-09-17T13:59:51.150Z,234
2022-09-17T14:19:51.678Z,215
2022-09-17T14:39:51.613Z,248
2022-09-17T14:59:51.569Z,251
2022-09-17T15:19:51.537Z,249
2022-09-17T15:39:51.630Z,250
2022-09-17T15:59:51.474Z,252
2022-09-17T16:19:51.456Z,251
2022-09-17T16:39:51.500Z,247
2022-09-17T16:59:51.423Z,248
2022-09-17T17:19:51.368Z,239
2022-09-17T17:39:51.375Z,230
2022-09-17T17:59:51.328Z,241
2022-09-17T18:19:51.310Z,242
2022-09-17T18:39:59.460Z,239
2022-09-17T18:59:51.253Z,237
2022-09-17T19:19:51.014Z,226
2022-09-17T19:39:51.273Z,239
2022-09-17T19:59:51.186Z,228
2022-09-17T20:19:51.153Z,240
2022-09-17T20:39:51.148Z,246
2022-09-17T20:59:51.097Z,219
2022-09-17T21:19:51.087Z,235
2022-09-17T21:39:51.103Z,241
2022-09-17T21:59:51.022Z,233
2022-09-17T22:19:50.991Z,233
2022-09-17T22:39:51.047Z,244
2022-09-17T22:59:50.975Z,229
2022-09-17T23:19:50.928Z,233
2022-09-17T23:39:50.952Z,228
2022-09-17T23:59:50.866Z,218
